sensor_id;sensor_type;location;lat;lon;timestamp;temperature;humidity
25366;DHT22;13315;48.274;-1.900;2022-12-07T00:01:14;16.00;59.20
25366;DHT22;13315;48.274;-1.900;2022-12-07T00:03:42;16.00;59.30
25366;DHT22;13315;48.274;-1.900;2022-12-07T00:06:10;15.90;59.30
25366;DHT22;13315;48.274;-1.900;2022-12-07T00:08:37;15.80;59.30
25366;DHT22;13315;48.274;-1.900;2022-12-07T00:11:14;15.80;59.50
25366;DHT22;13315;48.274;-1.900;2022-12-07T00:13:40;15.70;59.50
25366;DHT22;13315;48.274;-1.900;2022-12-07T00:16:09;15.70;59.70
25366;DHT22;13315;48.274;-1.900;2022-12-07T00:18:35;15.60;59.70
25366;DHT22;13315;48.274;-1.900;2022-12-07T00:21:06;15.60;59.80
25366;DHT22;13315;48.274;-1.900;2022-12-07T00:23:33;15.50;59.90
25366;DHT22;13315;48.274;-1.900;2022-12-07T00:26:14;15.50;60.00
25366;DHT22;13315;48.274;-1.900;2022-12-07T00:28:41;15.40;60.00
25366;DHT22;13315;48.274;-1.900;2022-12-07T00:31:09;15.40;60.10
25366;DHT22;13315;48.274;-1.900;2022-12-07T00:33:35;15.40;60.10
25366;DHT22;13315;48.274;-1.900;2022-12-07T00:36:04;15.30;60.10
25366;DHT22;13315;48.274;-1.900;2022-12-07T00:38:32;15.30;60.10
25366;DHT22;13315;48.274;-1.900;2022-12-07T00:41:00;15.20;60.20
25366;DHT22;13315;48.274;-1.900;2022-12-07T00:43:27;15.20;60.20
25366;DHT22;13315;48.274;-1.900;2022-12-07T00:45:53;15.10;60.30
25366;DHT22;13315;48.274;-1.900;2022-12-07T00:48:20;15.10;60.20
25366;DHT22;13315;48.274;-1.900;2022-12-07T00:50:46;15.10;60.30
25366;DHT22;13315;48.274;-1.900;2022-12-07T00:53:12;15.00;60.30
25366;DHT22;13315;48.274;-1.900;2022-12-07T00:55:38;15.00;60.50
25366;DHT22;13315;48.274;-1.900;2022-12-07T00:58:04;14.90;60.40
25366;DHT22;13315;48.274;-1.900;2022-12-07T01:00:30;14.90;60.50
25366;DHT22;13315;48.274;-1.900;2022-12-07T01:02:56;14.90;60.50
25366;DHT22;13315;48.274;-1.900;2022-12-07T01:05:21;14.80;60.60
25366;DHT22;13315;48.274;-1.900;2022-12-07T01:07:47;14.80;60.50
25366;DHT22;13315;48.274;-1.900;2022-12-07T01:10:14;14.80;60.60
25366;DHT22;13315;48.274;-1.900;2022-12-07T01:12:40;14.70;60.70
25366;DHT22;13315;48.274;-1.900;2022-12-07T01:15:07;14.70;60.70
25366;DHT22;13315;48.274;-1.900;2022-12-07T01:17:33;14.70;60.80
25366;DHT22;13315;48.274;-1.900;2022-12-07T01:19:58;14.60;60.80
25366;DHT22;13315;48.274;-1.900;2022-12-07T01:22:24;14.60;60.80
25366;DHT22;13315;48.274;-1.900;2022-12-07T01:24:50;14.60;60.90
25366;DHT22;13315;48.274;-1.900;2022-12-07T01:27:15;14.60;60.90
25366;DHT22;13315;48.274;-1.900;2022-12-07T01:29:41;14.50;61.00
25366;DHT22;13315;48.274;-1.900;2022-12-07T01:32:07;14.50;61.10
25366;DHT22;13315;48.274;-1.900;2022-12-07T01:34:33;14.50;61.10
25366;DHT22;13315;48.274;-1.900;2022-12-07T01:36:59;14.40;61.10
25366;DHT22;13315;48.274;-1.900;2022-12-07T01:39:24;14.40;61.20
25366;DHT22;13315;48.274;-1.900;2022-12-07T01:41:50;14.40;61.20
25366;DHT22;13315;48.274;-1.900;2022-12-07T01:44:22;14.40;61.20
25366;DHT22;13315;48.274;-1.900;2022-12-07T01:46:53;14.30;61.20
25366;DHT22;13315;48.274;-1.900;2022-12-07T01:49:36;14.30;61.30
25366;DHT22;13315;48.274;-1.900;2022-12-07T01:52:19;14.30;61.40
25366;DHT22;13315;48.274;-1.900;2022-12-07T01:54:47;14.20;61.30
25366;DHT22;13315;48.274;-1.900;2022-12-07T01:57:14;14.20;61.30
25366;DHT22;13315;48.274;-1.900;2022-12-07T01:59:43;14.20;61.40
25366;DHT22;13315;48.274;-1.900;2022-12-07T02:03:11;14.20;61.50
25366;DHT22;13315;48.274;-1.900;2022-12-07T02:05:27;14.20;61.50
25366;DHT22;13315;48.274;-1.900;2022-12-07T02:07:55;14.10;61.50
25366;DHT22;13315;48.274;-1.900;2022-12-07T02:10:27;14.10;61.50
25366;DHT22;13315;48.274;-1.900;2022-12-07T02:12:58;14.10;61.60
25366;DHT22;13315;48.274;-1.900;2022-12-07T02:15:34;14.10;61.70
25366;DHT22;13315;48.274;-1.900;2022-12-07T02:18:29;14.00;61.70
25366;DHT22;13315;48.274;-1.900;2022-12-07T02:24:15;14.00;61.80
25366;DHT22;13315;48.274;-1.900;2022-12-07T02:26:59;14.00;61.80
25366;DHT22;13315;48.274;-1.900;2022-12-07T02:30:00;14.00;61.90
25366;DHT22;13315;48.274;-1.900;2022-12-07T02:35:12;13.90;61.90
25366;DHT22;13315;48.274;-1.900;2022-12-07T02:37:49;13.90;62.00
25366;DHT22;13315;48.274;-1.900;2022-12-07T02:40:38;13.90;62.10
25366;DHT22;13315;48.274;-1.900;2022-12-07T02:43:24;13.90;62.10
25366;DHT22;13315;48.274;-1.900;2022-12-07T02:45:52;13.90;62.20
25366;DHT22;13315;48.274;-1.900;2022-12-07T02:48:20;13.90;62.20
25366;DHT22;13315;48.274;-1.900;2022-12-07T02:50:50;13.80;62.10
25366;DHT22;13315;48.274;-1.900;2022-12-07T02:53:42;13.80;62.20
25366;DHT22;13315;48.274;-1.900;2022-12-07T02:56:34;13.80;62.20
25366;DHT22;13315;48.274;-1.900;2022-12-07T03:07:33;13.80;62.40
25366;DHT22;13315;48.274;-1.900;2022-12-07T03:10:28;13.80;62.40
25366;DHT22;13315;48.274;-1.900;2022-12-07T03:18:49;13.70;62.40
25366;DHT22;13315;48.274;-1.900;2022-12-07T03:21:23;13.70;62.60
25366;DHT22;13315;48.274;-1.900;2022-12-07T03:23:54;13.70;63.00
25366;DHT22;13315;48.274;-1.900;2022-12-07T03:26:24;13.70;62.50
25366;DHT22;13315;48.274;-1.900;2022-12-07T03:28:55;13.70;62.50
25366;DHT22;13315;48.274;-1.900;2022-12-07T03:31:25;13.70;62.50
25366;DHT22;13315;48.274;-1.900;2022-12-07T03:33:54;13.70;62.60
25366;DHT22;13315;48.274;-1.900;2022-12-07T03:41:39;13.60;62.50
25366;DHT22;13315;48.274;-1.900;2022-12-07T03:44:06;13.60;62.60
25366;DHT22;13315;48.274;-1.900;2022-12-07T03:46:42;13.60;62.60
25366;DHT22;13315;48.274;-1.900;2022-12-07T03:50:00;13.60;62.60
25366;DHT22;13315;48.274;-1.900;2022-12-07T03:52:33;13.60;62.60
25366;DHT22;13315;48.274;-1.900;2022-12-07T03:55:16;13.60;62.70
25366;DHT22;13315;48.274;-1.900;2022-12-07T03:57:45;13.60;62.70
25366;DHT22;13315;48.274;-1.900;2022-12-07T04:00:13;13.50;63.20
25366;DHT22;13315;48.274;-1.900;2022-12-07T04:02:39;13.50;62.60
25366;DHT22;13315;48.274;-1.900;2022-12-07T04:05:05;13.50;62.70
25366;DHT22;13315;48.274;-1.900;2022-12-07T04:07:31;13.50;62.70
25366;DHT22;13315;48.274;-1.900;2022-12-07T04:09:57;13.50;62.70
25366;DHT22;13315;48.274;-1.900;2022-12-07T04:12:23;13.50;62.70
25366;DHT22;13315;48.274;-1.900;2022-12-07T04:14:49;13.50;62.70
25366;DHT22;13315;48.274;-1.900;2022-12-07T04:17:15;13.40;62.60
25366;DHT22;13315;48.274;-1.900;2022-12-07T04:19:41;13.50;62.70
25366;DHT22;13315;48.274;-1.900;2022-12-07T04:22:07;13.50;62.70
25366;DHT22;13315;48.274;-1.900;2022-12-07T04:24:33;13.50;62.70
25366;DHT22;13315;48.274;-1.900;2022-12-07T04:27:00;13.40;62.70
25366;DHT22;13315;48.274;-1.900;2022-12-07T04:29:26;13.40;62.70
25366;DHT22;13315;48.274;-1.900;2022-12-07T04:31:52;13.40;62.70
25366;DHT22;13315;48.274;-1.900;2022-12-07T04:34:19;13.40;62.80
25366;DHT22;13315;48.274;-1.900;2022-12-07T04:36:46;13.40;63.40
25366;DHT22;13315;48.274;-1.900;2022-12-07T04:39:26;13.40;62.80
25366;DHT22;13315;48.274;-1.900;2022-12-07T04:41:52;13.40;62.70
25366;DHT22;13315;48.274;-1.900;2022-12-07T04:44:18;13.40;62.80
25366;DHT22;13315;48.274;-1.900;2022-12-07T04:46:45;13.40;62.70
25366;DHT22;13315;48.274;-1.900;2022-12-07T04:49:11;13.40;62.80
25366;DHT22;13315;48.274;-1.900;2022-12-07T04:51:37;13.30;62.70
25366;DHT22;13315;48.274;-1.900;2022-12-07T04:54:03;13.40;62.80
25366;DHT22;13315;48.274;-1.900;2022-12-07T04:56:29;13.30;62.80
25366;DHT22;13315;48.274;-1.900;2022-12-07T04:58:55;13.30;62.70
25366;DHT22;13315;48.274;-1.900;2022-12-07T05:01:22;13.30;62.90
25366;DHT22;13315;48.274;-1.900;2022-12-07T05:03:47;13.30;62.80
25366;DHT22;13315;48.274;-1.900;2022-12-07T05:06:14;13.30;62.90
25366;DHT22;13315;48.274;-1.900;2022-12-07T05:08:40;13.30;62.90
25366;DHT22;13315;48.274;-1.900;2022-12-07T05:11:07;13.30;62.80
25366;DHT22;13315;48.274;-1.900;2022-12-07T05:13:34;13.30;62.90
25366;DHT22;13315;48.274;-1.900;2022-12-07T05:16:00;13.20;62.90
25366;DHT22;13315;48.274;-1.900;2022-12-07T05:18:26;13.20;62.90
25366;DHT22;13315;48.274;-1.900;2022-12-07T05:20:52;13.30;62.90
25366;DHT22;13315;48.274;-1.900;2022-12-07T05:23:18;13.20;62.80
25366;DHT22;13315;48.274;-1.900;2022-12-07T05:25:44;13.20;62.90
25366;DHT22;13315;48.274;-1.900;2022-12-07T05:28:10;13.20;62.90
25366;DHT22;13315;48.274;-1.900;2022-12-07T05:30:36;13.20;63.00
25366;DHT22;13315;48.274;-1.900;2022-12-07T05:33:02;13.20;63.10
25366;DHT22;13315;48.274;-1.900;2022-12-07T05:35:28;13.20;63.00
25366;DHT22;13315;48.274;-1.900;2022-12-07T05:37:55;13.20;63.10
25366;DHT22;13315;48.274;-1.900;2022-12-07T05:40:21;13.20;63.10
25366;DHT22;13315;48.274;-1.900;2022-12-07T05:42:47;13.20;63.10
25366;DHT22;13315;48.274;-1.900;2022-12-07T05:45:13;13.20;63.10
25366;DHT22;13315;48.274;-1.900;2022-12-07T05:47:38;13.20;63.20
25366;DHT22;13315;48.274;-1.900;2022-12-07T05:50:05;13.20;63.10
25366;DHT22;13315;48.274;-1.900;2022-12-07T05:52:31;13.20;63.20
25366;DHT22;13315;48.274;-1.900;2022-12-07T05:54:57;13.20;63.30
25366;DHT22;13315;48.274;-1.900;2022-12-07T05:57:23;13.20;63.30
25366;DHT22;13315;48.274;-1.900;2022-12-07T05:59:49;13.20;63.30
25366;DHT22;13315;48.274;-1.900;2022-12-07T06:02:16;13.20;63.30
25366;DHT22;13315;48.274;-1.900;2022-12-07T06:04:44;13.20;63.40
25366;DHT22;13315;48.274;-1.900;2022-12-07T06:07:12;13.10;63.40
25366;DHT22;13315;48.274;-1.900;2022-12-07T06:09:38;13.20;63.40
25366;DHT22;13315;48.274;-1.900;2022-12-07T06:12:05;13.20;63.40
25366;DHT22;13315;48.274;-1.900;2022-12-07T06:14:49;13.10;63.50
25366;DHT22;13315;48.274;-1.900;2022-12-07T06:17:15;13.10;63.50
25366;DHT22;13315;48.274;-1.900;2022-12-07T06:19:41;13.20;63.50
25366;DHT22;13315;48.274;-1.900;2022-12-07T06:22:10;13.10;63.50
25366;DHT22;13315;48.274;-1.900;2022-12-07T06:24:37;13.10;63.50
25366;DHT22;13315;48.274;-1.900;2022-12-07T06:27:03;13.20;63.60
25366;DHT22;13315;48.274;-1.900;2022-12-07T06:29:30;13.10;63.60
25366;DHT22;13315;48.274;-1.900;2022-12-07T06:31:56;13.10;63.60
25366;DHT22;13315;48.274;-1.900;2022-12-07T06:34:22;13.10;63.60
25366;DHT22;13315;48.274;-1.900;2022-12-07T06:36:49;13.10;63.80
25366;DHT22;13315;48.274;-1.900;2022-12-07T06:39:18;13.20;64.10
25366;DHT22;13315;48.274;-1.900;2022-12-07T06:41:44;13.20;64.70
25366;DHT22;13315;48.274;-1.900;2022-12-07T06:44:09;13.20;65.20
25366;DHT22;13315;48.274;-1.900;2022-12-07T06:46:35;13.20;65.50
25366;DHT22;13315;48.274;-1.900;2022-12-07T06:49:01;13.20;65.70
25366;DHT22;13315;48.274;-1.900;2022-12-07T06:51:28;13.20;65.90
25366;DHT22;13315;48.274;-1.900;2022-12-07T06:53:53;13.20;66.00
25366;DHT22;13315;48.274;-1.900;2022-12-07T06:56:19;13.20;66.00
25366;DHT22;13315;48.274;-1.900;2022-12-07T06:58:45;13.20;66.00
25366;DHT22;13315;48.274;-1.900;2022-12-07T07:01:12;13.20;66.20
25366;DHT22;13315;48.274;-1.900;2022-12-07T07:03:39;13.20;66.30
25366;DHT22;13315;48.274;-1.900;2022-12-07T07:06:05;13.20;66.50
25366;DHT22;13315;48.274;-1.900;2022-12-07T07:08:33;13.20;66.40
25366;DHT22;13315;48.274;-1.900;2022-12-07T07:10:59;13.20;66.50
25366;DHT22;13315;48.274;-1.900;2022-12-07T07:13:25;13.20;66.40
25366;DHT22;13315;48.274;-1.900;2022-12-07T07:15:51;13.20;66.30
25366;DHT22;13315;48.274;-1.900;2022-12-07T07:18:17;13.20;66.10
25366;DHT22;13315;48.274;-1.900;2022-12-07T07:20:42;13.20;65.90
25366;DHT22;13315;48.274;-1.900;2022-12-07T07:23:08;13.20;66.00
25366;DHT22;13315;48.274;-1.900;2022-12-07T07:25:34;13.30;66.50
25366;DHT22;13315;48.274;-1.900;2022-12-07T07:28:00;13.40;68.10
25366;DHT22;13315;48.274;-1.900;2022-12-07T07:30:26;13.60;66.90
25366;DHT22;13315;48.274;-1.900;2022-12-07T07:33:00;13.70;67.40
25366;DHT22;13315;48.274;-1.900;2022-12-07T07:35:27;13.70;65.80
25366;DHT22;13315;48.274;-1.900;2022-12-07T07:37:53;13.60;65.60
25366;DHT22;13315;48.274;-1.900;2022-12-07T07:40:19;13.70;65.40
25366;DHT22;13315;48.274;-1.900;2022-12-07T07:42:50;13.70;65.20
25366;DHT22;13315;48.274;-1.900;2022-12-07T07:45:17;13.80;64.90
25366;DHT22;13315;48.274;-1.900;2022-12-07T07:47:43;13.80;64.70
25366;DHT22;13315;48.274;-1.900;2022-12-07T07:50:09;13.90;64.50
25366;DHT22;13315;48.274;-1.900;2022-12-07T07:52:35;14.00;64.20
25366;DHT22;13315;48.274;-1.900;2022-12-07T07:55:01;14.10;64.50
25366;DHT22;13315;48.274;-1.900;2022-12-07T07:57:27;14.10;63.60
25366;DHT22;13315;48.274;-1.900;2022-12-07T07:59:52;14.20;63.40
25366;DHT22;13315;48.274;-1.900;2022-12-07T08:02:19;14.30;63.20
25366;DHT22;13315;48.274;-1.900;2022-12-07T08:04:46;14.40;63.00
25366;DHT22;13315;48.274;-1.900;2022-12-07T08:07:13;14.40;62.80
25366;DHT22;13315;48.274;-1.900;2022-12-07T08:09:39;14.50;62.60
25366;DHT22;13315;48.274;-1.900;2022-12-07T08:12:05;14.60;62.50
25366;DHT22;13315;48.274;-1.900;2022-12-07T08:14:31;14.60;62.30
25366;DHT22;13315;48.274;-1.900;2022-12-07T08:16:57;14.70;62.10
25366;DHT22;13315;48.274;-1.900;2022-12-07T08:19:23;14.80;61.90
25366;DHT22;13315;48.274;-1.900;2022-12-07T08:21:49;14.90;61.80
25366;DHT22;13315;48.274;-1.900;2022-12-07T08:24:15;14.90;61.60
25366;DHT22;13315;48.274;-1.900;2022-12-07T08:26:42;15.00;61.40
25366;DHT22;13315;48.274;-1.900;2022-12-07T08:29:08;15.10;61.40
25366;DHT22;13315;48.274;-1.900;2022-12-07T08:31:34;15.10;61.10
25366;DHT22;13315;48.274;-1.900;2022-12-07T08:34:00;15.20;61.10
25366;DHT22;13315;48.274;-1.900;2022-12-07T08:36:25;15.20;60.90
25366;DHT22;13315;48.274;-1.900;2022-12-07T08:38:51;15.30;60.80
25366;DHT22;13315;48.274;-1.900;2022-12-07T08:41:17;15.30;60.60
25366;DHT22;13315;48.274;-1.900;2022-12-07T08:43:43;15.40;60.50
25366;DHT22;13315;48.274;-1.900;2022-12-07T08:48:51;15.50;60.30
25366;DHT22;13315;48.274;-1.900;2022-12-07T08:51:19;15.50;60.20
25366;DHT22;13315;48.274;-1.900;2022-12-07T08:53:45;15.60;60.00
25366;DHT22;13315;48.274;-1.900;2022-12-07T08:56:11;15.60;60.00
25366;DHT22;13315;48.274;-1.900;2022-12-07T08:58:38;15.70;60.10
25366;DHT22;13315;48.274;-1.900;2022-12-07T09:01:04;15.70;60.30
25366;DHT22;13315;48.274;-1.900;2022-12-07T09:03:30;15.80;60.50
25366;DHT22;13315;48.274;-1.900;2022-12-07T09:05:57;15.90;60.80
25366;DHT22;13315;48.274;-1.900;2022-12-07T09:08:28;15.90;61.70
25366;DHT22;13315;48.274;-1.900;2022-12-07T09:10:55;16.00;62.90
25366;DHT22;13315;48.274;-1.900;2022-12-07T09:13:21;16.10;64.20
25366;DHT22;13315;48.274;-1.900;2022-12-07T09:15:46;16.20;65.40
25366;DHT22;13315;48.274;-1.900;2022-12-07T09:18:12;16.20;66.80
25366;DHT22;13315;48.274;-1.900;2022-12-07T09:20:38;16.20;67.10
25366;DHT22;13315;48.274;-1.900;2022-12-07T09:23:06;16.30;67.00
25366;DHT22;13315;48.274;-1.900;2022-12-07T09:25:32;16.30;67.10
25366;DHT22;13315;48.274;-1.900;2022-12-07T09:27:58;16.40;67.20
25366;DHT22;13315;48.274;-1.900;2022-12-07T09:30:25;16.40;67.30
25366;DHT22;13315;48.274;-1.900;2022-12-07T09:32:53;16.50;67.30
25366;DHT22;13315;48.274;-1.900;2022-12-07T09:35:20;16.60;67.40
25366;DHT22;13315;48.274;-1.900;2022-12-07T09:37:46;16.60;67.30
25366;DHT22;13315;48.274;-1.900;2022-12-07T09:40:14;16.60;67.10
25366;DHT22;13315;48.274;-1.900;2022-12-07T09:42:43;16.70;66.60
25366;DHT22;13315;48.274;-1.900;2022-12-07T09:45:39;16.70;66.00
25366;DHT22;13315;48.274;-1.900;2022-12-07T09:48:09;16.80;65.40
25366;DHT22;13315;48.274;-1.900;2022-12-07T09:50:39;16.80;65.00
25366;DHT22;13315;48.274;-1.900;2022-12-07T09:53:53;16.90;64.90
25366;DHT22;13315;48.274;-1.900;2022-12-07T09:55:59;16.90;64.30
25366;DHT22;13315;48.274;-1.900;2022-12-07T09:58:27;17.00;63.90
25366;DHT22;13315;48.274;-1.900;2022-12-07T10:00:55;17.00;63.50
25366;DHT22;13315;48.274;-1.900;2022-12-07T10:03:22;17.00;63.10
25366;DHT22;13315;48.274;-1.900;2022-12-07T10:05:51;17.10;62.90
25366;DHT22;13315;48.274;-1.900;2022-12-07T10:08:17;17.10;62.60
25366;DHT22;13315;48.274;-1.900;2022-12-07T10:10:45;17.10;62.30
25366;DHT22;13315;48.274;-1.900;2022-12-07T10:13:12;17.10;62.20
25366;DHT22;13315;48.274;-1.900;2022-12-07T10:15:59;17.20;62.20
25366;DHT22;13315;48.274;-1.900;2022-12-07T10:21:00;17.30;61.90
25366;DHT22;13315;48.274;-1.900;2022-12-07T10:23:27;17.30;61.80
25366;DHT22;13315;48.274;-1.900;2022-12-07T10:25:53;17.30;61.50
25366;DHT22;13315;48.274;-1.900;2022-12-07T10:28:21;17.40;61.40
25366;DHT22;13315;48.274;-1.900;2022-12-07T10:33:33;17.50;61.30
25366;DHT22;13315;48.274;-1.900;2022-12-07T10:36:00;17.60;61.60
25366;DHT22;13315;48.274;-1.900;2022-12-07T10:38:27;17.60;61.40
25366;DHT22;13315;48.274;-1.900;2022-12-07T10:41:06;17.60;61.50
25366;DHT22;13315;48.274;-1.900;2022-12-07T10:43:32;17.60;61.60
25366;DHT22;13315;48.274;-1.900;2022-12-07T10:46:21;17.60;61.80
25366;DHT22;13315;48.274;-1.900;2022-12-07T10:57:58;17.30;62.20
25366;DHT22;13315;48.274;-1.900;2022-12-07T11:00:29;17.30;63.10
25366;DHT22;13315;48.274;-1.900;2022-12-07T11:11:33;17.00;63.50
25366;DHT22;13315;48.274;-1.900;2022-12-07T11:16:52;17.00;64.00
25366;DHT22;13315;48.274;-1.900;2022-12-07T11:19:50;17.00;64.30
25366;DHT22;13315;48.274;-1.900;2022-12-07T11:28:26;17.00;64.30
25366;DHT22;13315;48.274;-1.900;2022-12-07T11:33:46;16.90;64.00
25366;DHT22;13315;48.274;-1.900;2022-12-07T11:36:41;17.00;64.10
25366;DHT22;13315;48.274;-1.900;2022-12-07T11:41:55;17.10;64.00
25366;DHT22;13315;48.274;-1.900;2022-12-07T11:44:38;17.00;64.60
25366;DHT22;13315;48.274;-1.900;2022-12-07T11:47:13;17.00;64.30
25366;DHT22;13315;48.274;-1.900;2022-12-07T11:49:51;17.10;64.50
25366;DHT22;13315;48.274;-1.900;2022-12-07T11:54:46;17.10;64.80
25366;DHT22;13315;48.274;-1.900;2022-12-07T11:57:48;17.10;64.70
25366;DHT22;13315;48.274;-1.900;2022-12-07T12:00:13;17.10;64.80
25366;DHT22;13315;48.274;-1.900;2022-12-07T12:05:20;17.10;64.80
25366;DHT22;13315;48.274;-1.900;2022-12-07T12:07:54;17.10;64.60
25366;DHT22;13315;48.274;-1.900;2022-12-07T12:21:46;17.20;64.40
25366;DHT22;13315;48.274;-1.900;2022-12-07T12:24:22;17.20;64.30
25366;DHT22;13315;48.274;-1.900;2022-12-07T12:26:56;17.20;64.30
25366;DHT22;13315;48.274;-1.900;2022-12-07T12:29:32;17.20;64.00
25366;DHT22;13315;48.274;-1.900;2022-12-07T12:32:14;17.10;64.00
25366;DHT22;13315;48.274;-1.900;2022-12-07T12:42:51;17.10;63.70
25366;DHT22;13315;48.274;-1.900;2022-12-07T12:48:03;17.00;63.50
25366;DHT22;13315;48.274;-1.900;2022-12-07T12:53:13;17.10;63.10
25366;DHT22;13315;48.274;-1.900;2022-12-07T13:00:47;17.00;63.00
25366;DHT22;13315;48.274;-1.900;2022-12-07T13:03:30;16.90;62.80
25366;DHT22;13315;48.274;-1.900;2022-12-07T13:08:45;16.90;62.90
25366;DHT22;13315;48.274;-1.900;2022-12-07T13:11:36;17.00;63.40
25366;DHT22;13315;48.274;-1.900;2022-12-07T13:14:39;17.00;62.70
25366;DHT22;13315;48.274;-1.900;2022-12-07T13:17:54;17.00;62.90
25366;DHT22;13315;48.274;-1.900;2022-12-07T13:19:59;17.00;62.90
25366;DHT22;13315;48.274;-1.900;2022-12-07T13:22:40;16.90;63.10
25366;DHT22;13315;48.274;-1.900;2022-12-07T13:28:31;16.80;62.40
25366;DHT22;13315;48.274;-1.900;2022-12-07T13:33:53;16.80;62.80
25366;DHT22;13315;48.274;-1.900;2022-12-07T13:36:22;16.80;62.50
25366;DHT22;13315;48.274;-1.900;2022-12-07T13:41:22;16.80;62.40
25366;DHT22;13315;48.274;-1.900;2022-12-07T13:43:52;16.80;62.60
25366;DHT22;13315;48.274;-1.900;2022-12-07T13:46:24;16.80;62.50
25366;DHT22;13315;48.274;-1.900;2022-12-07T13:48:50;16.90;62.70
25366;DHT22;13315;48.274;-1.900;2022-12-07T13:51:25;16.90;62.50
25366;DHT22;13315;48.274;-1.900;2022-12-07T13:53:59;16.80;62.10
25366;DHT22;13315;48.274;-1.900;2022-12-07T13:56:33;16.80;62.30
25366;DHT22;13315;48.274;-1.900;2022-12-07T13:58:59;16.80;62.10
25366;DHT22;13315;48.274;-1.900;2022-12-07T14:01:26;16.70;62.10
25366;DHT22;13315;48.274;-1.900;2022-12-07T14:03:52;16.80;62.00
25366;DHT22;13315;48.274;-1.900;2022-12-07T14:06:26;16.70;61.40
25366;DHT22;13315;48.274;-1.900;2022-12-07T14:09:18;16.70;61.90
25366;DHT22;13315;48.274;-1.900;2022-12-07T14:11:46;16.60;61.60
25366;DHT22;13315;48.274;-1.900;2022-12-07T14:14:16;16.50;61.00
25366;DHT22;13315;48.274;-1.900;2022-12-07T14:16:43;16.50;61.80
25366;DHT22;13315;48.274;-1.900;2022-12-07T14:20:00;16.50;62.60
25366;DHT22;13315;48.274;-1.900;2022-12-07T14:24:59;16.50;62.10
25366;DHT22;13315;48.274;-1.900;2022-12-07T14:27:31;16.60;62.20
25366;DHT22;13315;48.274;-1.900;2022-12-07T14:30:00;16.60;62.40
25366;DHT22;13315;48.274;-1.900;2022-12-07T14:32:28;16.60;62.00
25366;DHT22;13315;48.274;-1.900;2022-12-07T14:35:12;16.60;61.30
